sensor_id;sensor_type;location;lat;lon;timestamp;temperature;humidity
55151;DHT22;41041;43.162;20.538;2023-02-11T13:21:07;128.30;1510.40
55151;DHT22;41041;43.162;20.538;2023-02-11T13:35:38;128.80;1459.20
55151;DHT22;41041;43.162;20.538;2023-02-11T13:38:27;128.90;1433.60
55151;DHT22;41041;43.162;20.538;2023-02-11T13:41:15;128.90;1408.00
55151;DHT22;41041;43.162;20.538;2023-02-11T13:43:41;153.60;1433.60
55151;DHT22;41041;43.162;20.538;2023-02-11T13:46:12;153.60;1408.00
55151;DHT22;41041;43.162;20.538;2023-02-11T13:48:47;153.70;1382.40
55151;DHT22;41041;43.162;20.538;2023-02-11T13:51:17;153.80;1382.40
55151;DHT22;41041;43.162;20.538;2023-02-11T13:56:25;154.00;1408.00
55151;DHT22;41041;43.162;20.538;2023-02-11T13:58:52;154.10;1356.80
55151;DHT22;41041;43.162;20.538;2023-02-11T14:02:19;154.20;1356.80
55151;DHT22;41041;43.162;20.538;2023-02-11T14:08:13;154.40;1331.20
55151;DHT22;41041;43.162;20.538;2023-02-11T14:11:05;154.50;1331.20
55151;DHT22;41041;43.162;20.538;2023-02-11T14:19:39;179.20;1280.00
55151;DHT22;41041;43.162;20.538;2023-02-11T14:22:14;179.30;1305.60
55151;DHT22;41041;43.162;20.538;2023-02-11T14:35:19;179.50;1331.20
55151;DHT22;41041;43.162;20.538;2023-02-11T14:41:01;179.60;1305.60
55151;DHT22;41041;43.162;20.538;2023-02-11T14:43:39;179.70;1305.60
55151;DHT22;41041;43.162;20.538;2023-02-11T14:46:08;179.80;1305.60
55151;DHT22;41041;43.162;20.538;2023-02-11T14:48:36;179.70;1305.60
55151;DHT22;41041;43.162;20.538;2023-02-11T14:51:13;179.60;1280.00
55151;DHT22;41041;43.162;20.538;2023-02-11T14:53:47;179.70;1305.60
55151;DHT22;41041;43.162;20.538;2023-02-11T14:56:23;179.60;1331.20
55151;DHT22;41041;43.162;20.538;2023-02-11T14:58:53;179.60;1305.60
55151;DHT22;41041;43.162;20.538;2023-02-11T15:01:30;179.60;1305.60
55151;DHT22;41041;43.162;20.538;2023-02-11T15:04:41;179.40;1305.60
55151;DHT22;41041;43.162;20.538;2023-02-11T15:07:12;179.30;1331.20
55151;DHT22;41041;43.162;20.538;2023-02-11T15:09:45;179.30;1331.20
55151;DHT22;41041;43.162;20.538;2023-02-11T15:12:18;179.30;1305.60
55151;DHT22;41041;43.162;20.538;2023-02-11T15:14:49;179.30;1331.20
55151;DHT22;41041;43.162;20.538;2023-02-11T15:19:45;179.40;1331.20
55151;DHT22;41041;43.162;20.538;2023-02-11T15:22:22;179.30;1638.40
55151;DHT22;41041;43.162;20.538;2023-02-11T16:30:35;128.20;1689.60
55151;DHT22;41041;43.162;20.538;2023-02-11T16:33:02;128.10;1689.60
55151;DHT22;41041;43.162;20.538;2023-02-11T16:35:29;103.20;1894.40
55151;DHT22;41041;43.162;20.538;2023-02-11T16:40:21;128.00;1715.20
55151;DHT22;41041;43.162;20.538;2023-02-11T16:42:48;103.00;1715.20
55151;DHT22;41041;43.162;20.538;2023-02-11T16:45:14;102.80;1715.20
55151;DHT22;41041;43.162;20.538;2023-02-11T16:47:41;102.50;1740.80
55151;DHT22;41041;43.162;20.538;2023-02-11T16:50:22;102.40;1766.40
55151;DHT22;41041;43.162;20.538;2023-02-11T16:52:48;102.70;1766.40
55151;DHT22;41041;43.162;20.538;2023-02-11T17:14:50;77.60;1792.00
55151;DHT22;41041;43.162;20.538;2023-02-11T17:17:16;77.30;1817.60
55151;DHT22;41041;43.162;20.538;2023-02-11T17:19:42;77.30;1792.00
55151;DHT22;41041;43.162;20.538;2023-02-11T17:22:09;77.30;1792.00
55151;DHT22;41041;43.162;20.538;2023-02-11T17:24:36;77.10;1792.00
55151;DHT22;41041;43.162;20.538;2023-02-11T17:27:02;77.20;1792.00
55151;DHT22;41041;43.162;20.538;2023-02-11T17:29:28;77.20;1792.00
55151;DHT22;41041;43.162;20.538;2023-02-11T17:31:57;77.10;1817.60
55151;DHT22;41041;43.162;20.538;2023-02-11T17:34:23;77.10;1817.60
55151;DHT22;41041;43.162;20.538;2023-02-11T17:36:49;77.00;1843.20
55151;DHT22;41041;43.162;20.538;2023-02-11T17:39:15;77.00;1894.40
55151;DHT22;41041;43.162;20.538;2023-02-11T17:41:42;76.90;1945.60
55151;DHT22;41041;43.162;20.538;2023-02-11T17:44:10;76.80;1920.00
55151;DHT22;41041;43.162;20.538;2023-02-11T17:46:40;77.00;1945.60
55151;DHT22;41041;43.162;20.538;2023-02-11T21:01:18;26.10;2073.60
55151;DHT22;41041;43.162;20.538;2023-02-11T21:03:52;25.90;2201.60
55151;DHT22;41041;43.162;20.538;2023-02-11T21:11:12;25.80;2124.80
55151;DHT22;41041;43.162;20.538;2023-02-11T21:13:40;25.60;2201.60
55151;DHT22;41041;43.162;20.538;2023-02-11T21:16:07;25.70;2124.80
55151;DHT22;41041;43.162;20.538;2023-02-11T21:18:38;25.80;2099.20
55151;DHT22;41041;43.162;20.538;2023-02-11T21:21:04;25.70;2073.60
55151;DHT22;41041;43.162;20.538;2023-02-11T21:23:33;25.60;2099.20
55151;DHT22;41041;43.162;20.538;2023-02-11T21:26:00;0.80;2124.80
55151;DHT22;41041;43.162;20.538;2023-02-11T21:58:02;25.80;2099.20
55151;DHT22;41041;43.162;20.538;2023-02-11T22:00:29;25.60;2201.60
55151;DHT22;41041;43.162;20.538;2023-02-11T22:02:54;0.90;2124.80
55151;DHT22;41041;43.162;20.538;2023-02-11T22:05:20;0.90;2124.80
55151;DHT22;41041;43.162;20.538;2023-02-11T22:07:46;0.90;2099.20
55151;DHT22;41041;43.162;20.538;2023-02-11T22:10:12;0.90;2099.20
55151;DHT22;41041;43.162;20.538;2023-02-11T22:12:38;0.90;2099.20
55151;DHT22;41041;43.162;20.538;2023-02-11T22:15:05;0.90;2099.20
55151;DHT22;41041;43.162;20.538;2023-02-11T22:46:52;0.80;2099.20
55151;DHT22;41041;43.162;20.538;2023-02-11T22:51:45;0.80;2099.20
55151;DHT22;41041;43.162;20.538;2023-02-11T22:54:14;0.60;2201.60
55151;DHT22;41041;43.162;20.538;2023-02-11T22:56:40;0.30;2150.40
55151;DHT22;41041;43.162;20.538;2023-02-11T22:59:10;0.30;2150.40
55151;DHT22;41041;43.162;20.538;2023-02-11T23:01:36;0.10;2176.00
55151;DHT22;41041;43.162;20.538;2023-02-11T23:04:05;0.30;2150.40
55151;DHT22;41041;43.162;20.538;2023-02-11T23:06:31;0.10;2150.40
55151;DHT22;41041;43.162;20.538;2023-02-11T23:08:56;0.20;2150.40
55151;DHT22;41041;43.162;20.538;2023-02-11T23:11:26;0.20;2150.40
55151;DHT22;41041;43.162;20.538;2023-02-11T23:13:55;0.20;2150.40
55151;DHT22;41041;43.162;20.538;2023-02-11T23:16:24;0.20;2150.40
55151;DHT22;41041;43.162;20.538;2023-02-11T23:18:50;0.30;2150.40
55151;DHT22;41041;43.162;20.538;2023-02-11T23:21:20;0.20;2150.40
55151;DHT22;41041;43.162;20.538;2023-02-11T23:23:47;0.30;2150.40
55151;DHT22;41041;43.162;20.538;2023-02-11T23:26:15;0.40;2124.80
55151;DHT22;41041;43.162;20.538;2023-02-11T23:28:42;0.40;2124.80
55151;DHT22;41041;43.162;20.538;2023-02-11T23:31:13;0.50;2099.20
55151;DHT22;41041;43.162;20.538;2023-02-11T23:33:38;0.50;2124.80
55151;DHT22;41041;43.162;20.538;2023-02-11T23:36:05;0.50;2124.80
55151;DHT22;41041;43.162;20.538;2023-02-11T23:38:31;0.40;2124.80
55151;DHT22;41041;43.162;20.538;2023-02-11T23:40:56;0.40;2124.80
55151;DHT22;41041;43.162;20.538;2023-02-11T23:43:22;0.30;2124.80
55151;DHT22;41041;43.162;20.538;2023-02-11T23:45:48;0.30;2124.80
55151;DHT22;41041;43.162;20.538;2023-02-11T23:48:18;0.20;2124.80
55151;DHT22;41041;43.162;20.538;2023-02-11T23:50:43;0.30;2150.40
55151;DHT22;41041;43.162;20.538;2023-02-11T23:53:13;0.30;2124.80
55151;DHT22;41041;43.162;20.538;2023-02-11T23:55:44;0.40;2150.40
55151;DHT22;41041;43.162;20.538;2023-02-11T23:58:10;0.40;2124.80
